sensor_id;sensor_type;location;lat;lon;timestamp;pressure;altitude;pressure_sealevel;temperature;humidity
11648;BME280;5880;52.342;9.662;2024-02-26T00:00:33;99643.25;;;8.28;49.50
11648;BME280;5880;52.342;9.662;2024-02-26T00:03:01;99638.88;;;8.27;49.80
11648;BME280;5880;52.342;9.662;2024-02-26T00:05:26;99639.34;;;8.24;49.54
11648;BME280;5880;52.342;9.662;2024-02-26T00:07:52;99634.97;;;8.23;49.69
11648;BME280;5880;52.342;9.662;2024-02-26T00:10:18;99626.22;;;8.21;49.42
11648;BME280;5880;52.342;9.662;2024-02-26T00:12:44;99633.81;;;8.19;49.76
11648;BME280;5880;52.342;9.662;2024-02-26T00:15:10;99631.34;;;8.17;49.55
11648;BME280;5880;52.342;9.662;2024-02-26T00:17:36;99626.13;;;8.16;49.80
11648;BME280;5880;52.342;9.662;2024-02-26T00:20:03;99622.81;;;8.14;49.46
11648;BME280;5880;52.342;9.662;2024-02-26T00:22:35;99625.75;;;8.12;49.73
11648;BME280;5880;52.342;9.662;2024-02-26T00:25:01;99627.94;;;8.10;49.83
11648;BME280;5880;52.342;9.662;2024-02-26T00:27:27;99625.19;;;8.10;49.52
11648;BME280;5880;52.342;9.662;2024-02-26T00:29:52;99619.88;;;8.03;49.49
11648;BME280;5880;52.342;9.662;2024-02-26T00:32:18;99618.00;;;8.04;50.11
11648;BME280;5880;52.342;9.662;2024-02-26T00:34:44;99619.63;;;8.05;49.95
11648;BME280;5880;52.342;9.662;2024-02-26T00:37:09;99606.19;;;7.98;49.62
11648;BME280;5880;52.342;9.662;2024-02-26T00:39:35;99620.34;;;8.00;49.43
11648;BME280;5880;52.342;9.662;2024-02-26T00:42:01;99617.06;;;7.98;49.79
11648;BME280;5880;52.342;9.662;2024-02-26T00:44:26;99612.91;;;7.96;49.91
11648;BME280;5880;52.342;9.662;2024-02-26T00:46:52;99610.19;;;7.96;50.10
11648;BME280;5880;52.342;9.662;2024-02-26T00:49:18;99614.81;;;7.95;49.83
11648;BME280;5880;52.342;9.662;2024-02-26T00:51:43;99612.34;;;7.94;49.77
11648;BME280;5880;52.342;9.662;2024-02-26T00:54:09;99615.28;;;7.92;49.91
11648;BME280;5880;52.342;9.662;2024-02-26T00:56:35;99611.75;;;7.92;49.76
11648;BME280;5880;52.342;9.662;2024-02-26T00:59:00;99612.81;;;7.91;49.59
11648;BME280;5880;52.342;9.662;2024-02-26T01:01:26;99610.06;;;7.91;49.56
11648;BME280;5880;52.342;9.662;2024-02-26T01:03:52;99610.56;;;7.88;49.73
11648;BME280;5880;52.342;9.662;2024-02-26T01:06:18;99610.34;;;7.89;49.87
11648;BME280;5880;52.342;9.662;2024-02-26T01:08:44;99623.09;;;7.89;50.32
11648;BME280;5880;52.342;9.662;2024-02-26T01:11:09;99618.97;;;7.86;49.79
11648;BME280;5880;52.342;9.662;2024-02-26T01:13:35;99617.31;;;7.85;49.88
11648;BME280;5880;52.342;9.662;2024-02-26T01:16:00;99629.03;;;7.86;49.94
11648;BME280;5880;52.342;9.662;2024-02-26T01:18:27;99629.84;;;7.86;50.12
11648;BME280;5880;52.342;9.662;2024-02-26T01:20:52;99625.47;;;7.85;50.25
11648;BME280;5880;52.342;9.662;2024-02-26T01:23:20;99629.84;;;7.86;50.02
11648;BME280;5880;52.342;9.662;2024-02-26T01:25:46;99629.63;;;7.88;50.36
11648;BME280;5880;52.342;9.662;2024-02-26T01:28:11;99618.72;;;7.88;50.36
11648;BME280;5880;52.342;9.662;2024-02-26T01:30:37;99617.78;;;7.94;50.44
11648;BME280;5880;52.342;9.662;2024-02-26T01:33:03;99630.09;;;7.96;50.59
11648;BME280;5880;52.342;9.662;2024-02-26T01:35:29;99626.88;;;7.99;50.48
11648;BME280;5880;52.342;9.662;2024-02-26T01:37:55;99621.19;;;8.01;50.94
11648;BME280;5880;52.342;9.662;2024-02-26T01:40:21;99615.50;;;8.02;50.77
11648;BME280;5880;52.342;9.662;2024-02-26T01:42:47;99625.06;;;8.05;50.92
11648;BME280;5880;52.342;9.662;2024-02-26T01:45:17;99627.56;;;8.07;50.76
11648;BME280;5880;52.342;9.662;2024-02-26T01:47:51;99627.78;;;8.05;50.84
11648;BME280;5880;52.342;9.662;2024-02-26T01:50:18;99619.06;;;8.03;50.87
11648;BME280;5880;52.342;9.662;2024-02-26T01:52:46;99624.34;;;8.10;50.42
11648;BME280;5880;52.342;9.662;2024-02-26T01:55:14;99626.47;;;8.08;50.84
11648;BME280;5880;52.342;9.662;2024-02-26T01:57:45;99640.47;;;8.11;50.67
11648;BME280;5880;52.342;9.662;2024-02-26T02:00:15;99628.97;;;8.09;50.95
11648;BME280;5880;52.342;9.662;2024-02-26T02:02:42;99625.66;;;8.07;50.86
11648;BME280;5880;52.342;9.662;2024-02-26T02:05:11;99631.81;;;8.14;51.15
11648;BME280;5880;52.342;9.662;2024-02-26T02:07:37;99637.50;;;8.13;51.02
11648;BME280;5880;52.342;9.662;2024-02-26T02:10:05;99626.34;;;8.14;51.00
11648;BME280;5880;52.342;9.662;2024-02-26T02:12:32;99626.34;;;8.14;50.76
11648;BME280;5880;52.342;9.662;2024-02-26T02:15:00;99630.75;;;8.15;50.83
11648;BME280;5880;52.342;9.662;2024-02-26T02:17:27;99630.75;;;8.15;51.22
11648;BME280;5880;52.342;9.662;2024-02-26T02:19:53;99627.44;;;8.13;50.86
11648;BME280;5880;52.342;9.662;2024-02-26T02:22:19;99620.09;;;8.14;51.46
11648;BME280;5880;52.342;9.662;2024-02-26T02:24:45;99629.66;;;8.16;51.44
11648;BME280;5880;52.342;9.662;2024-02-26T02:27:11;99628.03;;;8.15;51.16
11648;BME280;5880;52.342;9.662;2024-02-26T02:29:37;99628.63;;;8.17;51.47
11648;BME280;5880;52.342;9.662;2024-02-26T02:32:04;99636.53;;;8.19;50.98
11648;BME280;5880;52.342;9.662;2024-02-26T02:34:31;99620.91;;;8.14;51.28
11648;BME280;5880;52.342;9.662;2024-02-26T02:36:58;99624.00;;;8.18;51.17
11648;BME280;5880;52.342;9.662;2024-02-26T02:39:23;99619.38;;;8.18;51.39
11648;BME280;5880;52.342;9.662;2024-02-26T02:41:49;99625.91;;;8.17;50.93
11648;BME280;5880;52.342;9.662;2024-02-26T02:44:15;99630.50;;;8.17;51.09
11648;BME280;5880;52.342;9.662;2024-02-26T02:46:40;99623.41;;;8.16;51.27
11648;BME280;5880;52.342;9.662;2024-02-26T02:49:10;99631.56;;;8.16;51.03
11648;BME280;5880;52.342;9.662;2024-02-26T02:51:36;99624.94;;;8.12;50.92
11648;BME280;5880;52.342;9.662;2024-02-26T02:54:02;99630.88;;;8.09;51.26
11648;BME280;5880;52.342;9.662;2024-02-26T02:56:28;99636.09;;;8.10;51.08
11648;BME280;5880;52.342;9.662;2024-02-26T02:58:54;99625.78;;;8.00;50.84
11648;BME280;5880;52.342;9.662;2024-02-26T03:01:19;99640.34;;;8.06;50.77
11648;BME280;5880;52.342;9.662;2024-02-26T03:03:45;99624.75;;;8.01;50.81
11648;BME280;5880;52.342;9.662;2024-02-26T03:06:10;99630.19;;;8.01;51.10
11648;BME280;5880;52.342;9.662;2024-02-26T03:08:36;99639.16;;;8.02;50.96
11648;BME280;5880;52.342;9.662;2024-02-26T03:11:04;99638.13;;;8.03;51.10
11648;BME280;5880;52.342;9.662;2024-02-26T03:13:29;99638.25;;;7.96;50.76
11648;BME280;5880;52.342;9.662;2024-02-26T03:15:55;99639.66;;;7.99;51.26
11648;BME280;5880;52.342;9.662;2024-02-26T03:18:21;99643.44;;;7.98;50.83
11648;BME280;5880;52.342;9.662;2024-02-26T03:20:47;99646.41;;;7.96;51.28
11648;BME280;5880;52.342;9.662;2024-02-26T03:23:12;99632.94;;;7.90;51.06
11648;BME280;5880;52.342;9.662;2024-02-26T03:25:45;99644.41;;;7.92;51.20
11648;BME280;5880;52.342;9.662;2024-02-26T03:28:11;99649.75;;;7.87;51.18
11648;BME280;5880;52.342;9.662;2024-02-26T03:30:38;99649.25;;;7.90;50.89
11648;BME280;5880;52.342;9.662;2024-02-26T03:33:03;99641.81;;;7.85;51.17
11648;BME280;5880;52.342;9.662;2024-02-26T03:35:29;99652.19;;;7.88;51.21
11648;BME280;5880;52.342;9.662;2024-02-26T03:37:55;99657.91;;;7.87;51.56
11648;BME280;5880;52.342;9.662;2024-02-26T03:40:21;99646.16;;;7.86;51.02
11648;BME280;5880;52.342;9.662;2024-02-26T03:42:46;99645.56;;;7.84;51.26
11648;BME280;5880;52.342;9.662;2024-02-26T03:45:12;99650.78;;;7.86;51.24
11648;BME280;5880;52.342;9.662;2024-02-26T03:47:38;99640.38;;;7.82;51.34
11648;BME280;5880;52.342;9.662;2024-02-26T03:50:07;99645.81;;;7.82;50.98
11648;BME280;5880;52.342;9.662;2024-02-26T03:52:33;99641.44;;;7.81;51.17
11648;BME280;5880;52.342;9.662;2024-02-26T03:54:59;99638.38;;;7.78;51.34
11648;BME280;5880;52.342;9.662;2024-02-26T03:57:25;99645.22;;;7.80;51.16
11648;BME280;5880;52.342;9.662;2024-02-26T03:59:50;99643.00;;;7.77;51.04
11648;BME280;5880;52.342;9.662;2024-02-26T04:02:16;99644.63;;;7.78;51.19
11648;BME280;5880;52.342;9.662;2024-02-26T04:04:42;99647.84;;;7.75;51.53
11648;BME280;5880;52.342;9.662;2024-02-26T04:07:08;99645.94;;;7.76;51.54
11648;BME280;5880;52.342;9.662;2024-02-26T04:09:34;99648.06;;;7.74;51.52
11648;BME280;5880;52.342;9.662;2024-02-26T04:11:59;99656.81;;;7.76;51.42
11648;BME280;5880;52.342;9.662;2024-02-26T04:14:25;99658.25;;;7.78;51.45
11648;BME280;5880;52.342;9.662;2024-02-26T04:16:51;99650.56;;;7.75;51.64
11648;BME280;5880;52.342;9.662;2024-02-26T04:19:19;99665.59;;;7.78;51.27
11648;BME280;5880;52.342;9.662;2024-02-26T04:21:46;99665.31;;;7.79;51.24
11648;BME280;5880;52.342;9.662;2024-02-26T04:24:11;99667.22;;;7.79;51.27
11648;BME280;5880;52.342;9.662;2024-02-26T04:26:37;99671.34;;;7.81;51.72
11648;BME280;5880;52.342;9.662;2024-02-26T04:29:02;99667.81;;;7.81;51.78
11648;BME280;5880;52.342;9.662;2024-02-26T04:31:28;99675.50;;;7.84;51.47
11648;BME280;5880;52.342;9.662;2024-02-26T04:33:54;99683.22;;;7.87;51.77
11648;BME280;5880;52.342;9.662;2024-02-26T04:36:19;99678.59;;;7.88;51.99
11648;BME280;5880;52.342;9.662;2024-02-26T04:38:45;99686.53;;;7.89;51.91
11648;BME280;5880;52.342;9.662;2024-02-26T04:41:11;99686.25;;;7.91;51.55
11648;BME280;5880;52.342;9.662;2024-02-26T04:43:38;99671.59;;;7.92;52.18
11648;BME280;5880;52.342;9.662;2024-02-26T04:46:09;99686.03;;;7.92;52.02
11648;BME280;5880;52.342;9.662;2024-02-26T04:48:36;99674.56;;;7.90;52.08
11648;BME280;5880;52.342;9.662;2024-02-26T04:51:03;99683.53;;;7.91;51.97
11648;BME280;5880;52.342;9.662;2024-02-26T04:53:28;99689.94;;;7.96;51.52
11648;BME280;5880;52.342;9.662;2024-02-26T04:55:54;99698.09;;;7.96;51.52
11648;BME280;5880;52.342;9.662;2024-02-26T04:58:20;99701.44;;;7.98;52.11
11648;BME280;5880;52.342;9.662;2024-02-26T05:00:45;99705.78;;;7.99;51.80
11648;BME280;5880;52.342;9.662;2024-02-26T05:03:11;99708.50;;;7.99;51.98
11648;BME280;5880;52.342;9.662;2024-02-26T05:05:44;99717.25;;;8.01;51.78
11648;BME280;5880;52.342;9.662;2024-02-26T05:08:10;99712.31;;;7.98;52.26
11648;BME280;5880;52.342;9.662;2024-02-26T05:10:37;99722.47;;;8.03;52.14
11648;BME280;5880;52.342;9.662;2024-02-26T05:13:07;99718.69;;;8.04;51.89
11648;BME280;5880;52.342;9.662;2024-02-26T05:15:32;99720.31;;;8.05;51.91
11648;BME280;5880;52.342;9.662;2024-02-26T05:17:58;99718.44;;;8.06;52.12
11648;BME280;5880;52.342;9.662;2024-02-26T05:20:24;99716.28;;;8.08;52.21
11648;BME280;5880;52.342;9.662;2024-02-26T05:22:50;99711.13;;;8.06;52.30
11648;BME280;5880;52.342;9.662;2024-02-26T05:25:16;99718.78;;;8.09;51.99
11648;BME280;5880;52.342;9.662;2024-02-26T05:27:43;99716.88;;;8.10;52.22
11648;BME280;5880;52.342;9.662;2024-02-26T05:30:10;99709.31;;;8.12;51.92
11648;BME280;5880;52.342;9.662;2024-02-26T05:32:36;99721.03;;;8.12;52.07
11648;BME280;5880;52.342;9.662;2024-02-26T05:35:03;99715.59;;;8.12;52.19
11648;BME280;5880;52.342;9.662;2024-02-26T05:37:29;99727.06;;;8.14;51.86
11648;BME280;5880;52.342;9.662;2024-02-26T05:39:55;99724.34;;;8.14;52.38
11648;BME280;5880;52.342;9.662;2024-02-26T05:42:21;99731.47;;;8.15;52.39
11648;BME280;5880;52.342;9.662;2024-02-26T05:44:46;99726.84;;;8.16;52.13
11648;BME280;5880;52.342;9.662;2024-02-26T05:47:12;99722.47;;;8.15;52.21
11648;BME280;5880;52.342;9.662;2024-02-26T05:49:39;99728.25;;;8.18;52.18
11648;BME280;5880;52.342;9.662;2024-02-26T05:52:06;99731.78;;;8.19;52.45
11648;BME280;5880;52.342;9.662;2024-02-26T05:54:32;99728.25;;;8.18;52.17
11648;BME280;5880;52.342;9.662;2024-02-26T05:56:58;99733.47;;;8.20;52.57
11648;BME280;5880;52.342;9.662;2024-02-26T05:59:23;99726.34;;;8.19;52.19
11648;BME280;5880;52.342;9.662;2024-02-26T06:01:49;99727.75;;;8.21;52.39
11648;BME280;5880;52.342;9.662;2024-02-26T06:04:15;99730.25;;;8.23;52.25
11648;BME280;5880;52.342;9.662;2024-02-26T06:06:42;99734.63;;;8.24;52.32
11648;BME280;5880;52.342;9.662;2024-02-26T06:09:08;99731.66;;;8.25;52.39
11648;BME280;5880;52.342;9.662;2024-02-26T06:11:33;99733.81;;;8.23;52.58
11648;BME280;5880;52.342;9.662;2024-02-26T06:13:59;99739.00;;;8.25;52.16
11648;BME280;5880;52.342;9.662;2024-02-26T06:16:25;99742.56;;;8.25;52.38
11648;BME280;5880;52.342;9.662;2024-02-26T06:18:50;99737.94;;;8.26;53.02
11648;BME280;5880;52.342;9.662;2024-02-26T06:21:16;99743.38;;;8.26;52.92
11648;BME280;5880;52.342;9.662;2024-02-26T06:23:41;99751.56;;;8.26;53.01
11648;BME280;5880;52.342;9.662;2024-02-26T06:26:07;99746.59;;;8.23;53.05
11648;BME280;5880;52.342;9.662;2024-02-26T06:28:33;99747.91;;;8.20;53.15
11648;BME280;5880;52.342;9.662;2024-02-26T06:31:01;99753.94;;;8.22;53.22
11648;BME280;5880;52.342;9.662;2024-02-26T06:33:27;99753.34;;;8.20;53.10
11648;BME280;5880;52.342;9.662;2024-02-26T06:35:53;99765.41;;;8.24;53.20
11648;BME280;5880;52.342;9.662;2024-02-26T06:38:19;99763.53;;;8.25;53.31
11648;BME280;5880;52.342;9.662;2024-02-26T06:40:45;99764.56;;;8.24;53.26
11648;BME280;5880;52.342;9.662;2024-02-26T06:43:11;99770.59;;;8.26;53.13
11648;BME280;5880;52.342;9.662;2024-02-26T06:45:37;99779.38;;;8.28;53.36
11648;BME280;5880;52.342;9.662;2024-02-26T06:48:02;99781.88;;;8.30;53.36
11648;BME280;5880;52.342;9.662;2024-02-26T06:50:28;99799.03;;;8.30;53.54
11648;BME280;5880;52.342;9.662;2024-02-26T06:52:54;99803.97;;;8.33;53.43
11648;BME280;5880;52.342;9.662;2024-02-26T06:55:19;99817.16;;;8.36;53.75
11648;BME280;5880;52.342;9.662;2024-02-26T06:57:45;99816.47;;;8.41;53.73
11648;BME280;5880;52.342;9.662;2024-02-26T07:00:11;99813.84;;;8.46;53.81
11648;BME280;5880;52.342;9.662;2024-02-26T07:02:42;99816.91;;;8.50;53.52
11648;BME280;5880;52.342;9.662;2024-02-26T07:05:08;99831.50;;;8.55;53.61
11648;BME280;5880;52.342;9.662;2024-02-26T07:07:34;99826.38;;;8.59;53.47
11648;BME280;5880;52.342;9.662;2024-02-26T07:10:00;99829.47;;;8.62;53.62
11648;BME280;5880;52.342;9.662;2024-02-26T07:12:30;99832.28;;;8.68;53.62
11648;BME280;5880;52.342;9.662;2024-02-26T07:14:55;99832.41;;;8.73;53.52
11648;BME280;5880;52.342;9.662;2024-02-26T07:17:21;99830.88;;;8.77;53.72
11648;BME280;5880;52.342;9.662;2024-02-26T07:19:47;99834.78;;;8.81;53.64
11648;BME280;5880;52.342;9.662;2024-02-26T07:22:12;99834.50;;;8.82;53.49
11648;BME280;5880;52.342;9.662;2024-02-26T07:24:39;99838.09;;;8.83;53.48
11648;BME280;5880;52.342;9.662;2024-02-26T07:27:04;99831.22;;;8.80;53.65
11648;BME280;5880;52.342;9.662;2024-02-26T07:29:30;99834.41;;;8.77;53.57
11648;BME280;5880;52.342;9.662;2024-02-26T07:31:56;99831.94;;;8.76;53.61
11648;BME280;5880;52.342;9.662;2024-02-26T07:34:22;99825.41;;;8.77;53.75
11648;BME280;5880;52.342;9.662;2024-02-26T07:36:53;99828.13;;;8.77;53.40
11648;BME280;5880;52.342;9.662;2024-02-26T07:39:19;99833.59;;;8.77;53.71
11648;BME280;5880;52.342;9.662;2024-02-26T07:41:44;99828.38;;;8.75;53.50
11648;BME280;5880;52.342;9.662;2024-02-26T07:44:13;99838.53;;;8.80;53.83
11648;BME280;5880;52.342;9.662;2024-02-26T07:46:39;99839.72;;;8.84;53.81
11648;BME280;5880;52.342;9.662;2024-02-26T07:49:05;99836.50;;;8.87;53.53
11648;BME280;5880;52.342;9.662;2024-02-26T07:51:30;99850.28;;;8.92;53.87
11648;BME280;5880;52.342;9.662;2024-02-26T07:53:56;99842.19;;;8.97;54.01
11648;BME280;5880;52.342;9.662;2024-02-26T07:56:21;99840.41;;;9.03;53.73
11648;BME280;5880;52.342;9.662;2024-02-26T07:58:47;99836.13;;;9.07;53.60
11648;BME280;5880;52.342;9.662;2024-02-26T08:01:13;99846.31;;;9.12;53.78
11648;BME280;5880;52.342;9.662;2024-02-26T08:03:40;99847.94;;;9.13;53.84
11648;BME280;5880;52.342;9.662;2024-02-26T08:06:06;99848.53;;;9.15;53.58
11648;BME280;5880;52.342;9.662;2024-02-26T08:08:33;99848.31;;;9.16;53.70
11648;BME280;5880;52.342;9.662;2024-02-26T08:10:59;99854.59;;;9.17;53.71
11648;BME280;5880;52.342;9.662;2024-02-26T08:13:24;99852.44;;;9.19;53.62
11648;BME280;5880;52.342;9.662;2024-02-26T08:15:50;99842.63;;;9.18;53.62
11648;BME280;5880;52.342;9.662;2024-02-26T08:18:15;99849.94;;;9.17;53.75
11648;BME280;5880;52.342;9.662;2024-02-26T08:20:41;99852.53;;;9.24;53.78
11648;BME280;5880;52.342;9.662;2024-02-26T08:23:07;99855.84;;;9.26;53.82
11648;BME280;5880;52.342;9.662;2024-02-26T08:25:32;99849.91;;;9.29;53.80
11648;BME280;5880;52.342;9.662;2024-02-26T08:27:58;99845.78;;;9.26;53.71
11648;BME280;5880;52.342;9.662;2024-02-26T08:30:24;99851.59;;;9.30;53.62
11648;BME280;5880;52.342;9.662;2024-02-26T08:32:50;99837.84;;;9.25;53.44
11648;BME280;5880;52.342;9.662;2024-02-26T08:35:16;99836.88;;;9.31;53.73
11648;BME280;5880;52.342;9.662;2024-02-26T08:37:45;99848.13;;;9.35;53.56
11648;BME280;5880;52.342;9.662;2024-02-26T08:40:11;99844.81;;;9.33;53.58
11648;BME280;5880;52.342;9.662;2024-02-26T08:42:37;99840.53;;;9.37;53.74
11648;BME280;5880;52.342;9.662;2024-02-26T08:45:03;99849.28;;;9.39;53.59
11648;BME280;5880;52.342;9.662;2024-02-26T08:47:29;99855.00;;;9.37;53.75
11648;BME280;5880;52.342;9.662;2024-02-26T08:49:55;99851.53;;;9.42;53.66
11648;BME280;5880;52.342;9.662;2024-02-26T08:52:20;99847.50;;;9.44;53.79
11648;BME280;5880;52.342;9.662;2024-02-26T08:54:47;99852.44;;;9.47;53.63
11648;BME280;5880;52.342;9.662;2024-02-26T08:57:13;99850.81;;;9.46;53.66
11648;BME280;5880;52.342;9.662;2024-02-26T08:59:38;99844.84;;;9.49;53.74
11648;BME280;5880;52.342;9.662;2024-02-26T09:02:04;99843.31;;;9.54;53.72
11648;BME280;5880;52.342;9.662;2024-02-26T09:04:29;99844.47;;;9.58;53.71
11648;BME280;5880;52.342;9.662;2024-02-26T09:06:55;99847.75;;;9.60;53.72
11648;BME280;5880;52.342;9.662;2024-02-26T09:09:21;99841.03;;;9.62;53.66
11648;BME280;5880;52.342;9.662;2024-02-26T09:11:48;99846.22;;;9.64;53.58
11648;BME280;5880;52.342;9.662;2024-02-26T09:14:17;99840.75;;;9.64;53.59
11648;BME280;5880;52.342;9.662;2024-02-26T09:16:42;99852.84;;;9.68;53.63
11648;BME280;5880;52.342;9.662;2024-02-26T09:19:08;99844.66;;;9.68;53.61
11648;BME280;5880;52.342;9.662;2024-02-26T09:21:34;99851.59;;;9.76;53.76
11648;BME280;5880;52.342;9.662;2024-02-26T09:23:59;99856.59;;;9.79;53.69
11648;BME280;5880;52.342;9.662;2024-02-26T09:26:25;99859.06;;;9.80;53.28
11648;BME280;5880;52.342;9.662;2024-02-26T09:28:51;99865.34;;;9.81;53.31
11648;BME280;5880;52.342;9.662;2024-02-26T09:31:18;99876.38;;;9.86;53.13
11648;BME280;5880;52.342;9.662;2024-02-26T09:33:43;99868.75;;;9.88;53.15
11648;BME280;5880;52.342;9.662;2024-02-26T09:36:09;99877.78;;;9.88;53.26
11648;BME280;5880;52.342;9.662;2024-02-26T09:38:37;99872.91;;;9.90;53.22
11648;BME280;5880;52.342;9.662;2024-02-26T09:41:05;99871.06;;;9.96;53.09
11648;BME280;5880;52.342;9.662;2024-02-26T09:43:35;99880.75;;;10.04;53.35
11648;BME280;5880;52.342;9.662;2024-02-26T09:46:05;99884.81;;;10.01;53.22
11648;BME280;5880;52.342;9.662;2024-02-26T09:48:32;99884.66;;;10.08;53.24
11648;BME280;5880;52.342;9.662;2024-02-26T09:51:01;99885.56;;;10.13;53.26
11648;BME280;5880;52.342;9.662;2024-02-26T09:53:30;99882.34;;;10.17;53.23
11648;BME280;5880;52.342;9.662;2024-02-26T09:55:58;99893.34;;;10.22;53.01
11648;BME280;5880;52.342;9.662;2024-02-26T09:58:28;99890.69;;;10.27;53.40
11648;BME280;5880;52.342;9.662;2024-02-26T10:00:57;99901.75;;;10.32;53.27
11648;BME280;5880;52.342;9.662;2024-02-26T10:03:31;99902.09;;;10.35;53.14
11648;BME280;5880;52.342;9.662;2024-02-26T10:05:58;99910.59;;;10.39;53.27
11648;BME280;5880;52.342;9.662;2024-02-26T10:08:25;99911.53;;;10.45;53.12
11648;BME280;5880;52.342;9.662;2024-02-26T10:10:52;99904.72;;;10.47;53.26
11648;BME280;5880;52.342;9.662;2024-02-26T10:13:18;99923.94;;;10.52;53.31
11648;BME280;5880;52.342;9.662;2024-02-26T10:15:45;99919.06;;;10.54;53.27
11648;BME280;5880;52.342;9.662;2024-02-26T10:18:11;99928.13;;;10.60;52.91
11648;BME280;5880;52.342;9.662;2024-02-26T10:20:37;99925.50;;;10.65;53.10
11648;BME280;5880;52.342;9.662;2024-02-26T10:23:03;99931.22;;;10.64;52.80
11648;BME280;5880;52.342;9.662;2024-02-26T10:25:31;99929.38;;;10.69;52.53
11648;BME280;5880;52.342;9.662;2024-02-26T10:28:00;99915.97;;;10.68;52.58
11648;BME280;5880;52.342;9.662;2024-02-26T10:30:29;99935.19;;;10.73;52.58
11648;BME280;5880;52.342;9.662;2024-02-26T10:32:56;99939.91;;;10.77;52.11
11648;BME280;5880;52.342;9.662;2024-02-26T10:35:23;99939.91;;;10.77;52.28
11648;BME280;5880;52.342;9.662;2024-02-26T10:37:50;99936.66;;;10.81;52.50
11648;BME280;5880;52.342;9.662;2024-02-26T10:40:16;99938.06;;;10.83;52.19
11648;BME280;5880;52.342;9.662;2024-02-26T10:42:43;99941.38;;;10.85;51.97
11648;BME280;5880;52.342;9.662;2024-02-26T10:45:10;99942.78;;;10.88;52.07
11648;BME280;5880;52.342;9.662;2024-02-26T10:47:36;99937.25;;;10.83;51.87
11648;BME280;5880;52.342;9.662;2024-02-26T10:50:04;99946.59;;;10.87;52.18
11648;BME280;5880;52.342;9.662;2024-02-26T10:52:36;99950.47;;;10.91;51.77
11648;BME280;5880;52.342;9.662;2024-02-26T10:55:04;99949.16;;;10.93;51.99
11648;BME280;5880;52.342;9.662;2024-02-26T10:57:42;99951.69;;;11.00;52.21
11648;BME280;5880;52.342;9.662;2024-02-26T11:00:14;99946.22;;;11.00;52.18
11648;BME280;5880;52.342;9.662;2024-02-26T11:02:41;99947.16;;;11.06;52.07
11648;BME280;5880;52.342;9.662;2024-02-26T11:05:08;99937.03;;;11.06;52.45
11648;BME280;5880;52.342;9.662;2024-02-26T11:07:37;99933.19;;;11.07;52.24
11648;BME280;5880;52.342;9.662;2024-02-26T11:10:04;99928.06;;;11.11;51.91
11648;BME280;5880;52.342;9.662;2024-02-26T11:12:35;99935.75;;;11.14;51.99
11648;BME280;5880;52.342;9.662;2024-02-26T11:15:03;99932.53;;;11.17;52.20
11648;BME280;5880;52.342;9.662;2024-02-26T11:17:30;99935.53;;;11.15;51.45
11648;BME280;5880;52.342;9.662;2024-02-26T11:19:58;99931.16;;;11.14;51.50
11648;BME280;5880;52.342;9.662;2024-02-26T11:22:28;99930.34;;;11.19;51.85
11648;BME280;5880;52.342;9.662;2024-02-26T11:24:56;99931.78;;;11.22;51.83
11648;BME280;5880;52.342;9.662;2024-02-26T11:27:40;99922.72;;;11.21;52.01
11648;BME280;5880;52.342;9.662;2024-02-26T11:30:13;99928.84;;;11.28;51.61
11648;BME280;5880;52.342;9.662;2024-02-26T11:32:39;99922.88;;;11.31;51.64
11648;BME280;5880;52.342;9.662;2024-02-26T11:35:06;99924.56;;;11.37;51.76
11648;BME280;5880;52.342;9.662;2024-02-26T11:37:33;99925.50;;;11.43;51.86
11648;BME280;5880;52.342;9.662;2024-02-26T11:40:00;99929.38;;;11.47;51.76
11648;BME280;5880;52.342;9.662;2024-02-26T11:42:29;99937.38;;;11.54;51.73
11648;BME280;5880;52.342;9.662;2024-02-26T11:44:55;99939.09;;;11.60;51.88
11648;BME280;5880;52.342;9.662;2024-02-26T11:47:27;99923.81;;;11.64;51.59
11648;BME280;5880;52.342;9.662;2024-02-26T11:49:53;99925.78;;;11.69;51.56
11648;BME280;5880;52.342;9.662;2024-02-26T11:52:18;99928.81;;;11.72;51.47
11648;BME280;5880;52.342;9.662;2024-02-26T11:54:52;99935.19;;;11.78;51.36
11648;BME280;5880;52.342;9.662;2024-02-26T11:57:37;99936.06;;;11.83;51.48
11648;BME280;5880;52.342;9.662;2024-02-26T12:02:51;99944.41;;;11.94;51.24
11648;BME280;5880;52.342;9.662;2024-02-26T12:05:24;99942.00;;;11.97;51.66
11648;BME280;5880;52.342;9.662;2024-02-26T12:07:55;99942.63;;;12.04;51.69
11648;BME280;5880;52.342;9.662;2024-02-26T12:10:31;99946.53;;;12.14;51.50
11648;BME280;5880;52.342;9.662;2024-02-26T12:13:29;99952.31;;;12.17;51.43
11648;BME280;5880;52.342;9.662;2024-02-26T12:15:57;99949.91;;;12.21;51.51
11648;BME280;5880;52.342;9.662;2024-02-26T12:18:24;99956.53;;;12.25;50.82
11648;BME280;5880;52.342;9.662;2024-02-26T12:21:03;99954.59;;;12.25;50.44
11648;BME280;5880;52.342;9.662;2024-02-26T12:23:29;99970.78;;;12.27;50.38
11648;BME280;5880;52.342;9.662;2024-02-26T12:26:01;99964.78;;;12.30;50.39
11648;BME280;5880;52.342;9.662;2024-02-26T12:28:31;99972.75;;;12.32;50.39
11648;BME280;5880;52.342;9.662;2024-02-26T12:30:57;99967.81;;;12.34;50.38
11648;BME280;5880;52.342;9.662;2024-02-26T12:33:25;99971.97;;;12.36;50.13
11648;BME280;5880;52.342;9.662;2024-02-26T12:35:53;99959.09;;;12.37;50.23
11648;BME280;5880;52.342;9.662;2024-02-26T12:38:19;99959.91;;;12.37;50.13
11648;BME280;5880;52.342;9.662;2024-02-26T12:40:45;99966.25;;;12.43;50.54
11648;BME280;5880;52.342;9.662;2024-02-26T12:43:11;99966.34;;;12.48;50.24
11648;BME280;5880;52.342;9.662;2024-02-26T12:45:41;99963.88;;;12.52;50.23
11648;BME280;5880;52.342;9.662;2024-02-26T12:48:08;99975.44;;;12.59;50.07
11648;BME280;5880;52.342;9.662;2024-02-26T12:50:34;99977.69;;;12.62;50.11
11648;BME280;5880;52.342;9.662;2024-02-26T12:53:00;99967.25;;;12.64;50.29
11648;BME280;5880;52.342;9.662;2024-02-26T12:55:26;99977.44;;;12.68;50.05
11648;BME280;5880;52.342;9.662;2024-02-26T12:57:52;99980.75;;;12.71;49.87
11648;BME280;5880;52.342;9.662;2024-02-26T13:00:24;99983.25;;;12.72;49.95
11648;BME280;5880;52.342;9.662;2024-02-26T13:02:51;99979.16;;;12.75;50.42
11648;BME280;5880;52.342;9.662;2024-02-26T13:05:19;99990.69;;;12.77;50.06
11648;BME280;5880;52.342;9.662;2024-02-26T13:07:46;99987.13;;;12.76;49.90
11648;BME280;5880;52.342;9.662;2024-02-26T13:10:17;99990.69;;;12.77;49.80
11648;BME280;5880;52.342;9.662;2024-02-26T13:12:49;99996.72;;;12.79;49.57
11648;BME280;5880;52.342;9.662;2024-02-26T13:15:20;100006.03;;;12.78;49.59
11648;BME280;5880;52.342;9.662;2024-02-26T13:17:48;100000.56;;;12.78;49.92
11648;BME280;5880;52.342;9.662;2024-02-26T13:20:30;100007.41;;;12.80;49.70